Elyria, NE (68837)

11:46 AM CDT on April 18, 2015 (GMT -0500)
Sharp | | Change Station
CLOSE
Current Station
Airport
Location: Ord,
Elevation: 2070 ft
Nearby Weather Stations

Elev 2070 ft 41.62 °N, 98.95 °W | Updated 46 minutes ago

Overcast
Overcast
58 °F
Feels Like 58 °F
N
0
Wind Variable Wind from North

Today
High -- | Low -- °F
--% Chance of Precip.
Yesterday
High -- | Low -- °F
Precip. -- in
6:51 AM 8:20 PM
Waning Crescent, 0% visible
Pressure 29.88 in
Visibility 8.0 miles
Clouds Scattered Clouds 800 ft
Overcast 1500 ft
Dew Point 55 °F
Humidity 90%
Rainfall 0.01 in
Snow Depth Not available.
UV 2 out of 12
Pollen 5.80 out of 12
Air Quality Not available.
Flu Activity Local Activity
SPECI KODX 181600Z AUTO 00000KT 8SM SCT008 OVC015 14/13 A2988 RMK AO2 T01440128 $

More Conditions Fewer Conditions

Pressure 29.88 in
Visibility 8.0 miles
Clouds Scattered Clouds 800 ft
Overcast 1500 ft
Dew Point 55 °F
Humidity 90%
Rainfall 0.01 in
Snow Depth Not available.
UV 2 out of 12
Pollen 5.80 out of 12
Air Quality Not available.
Flu Activity Local Activity
SPECI KODX 181600Z AUTO 00000KT 8SM SCT008 OVC015 14/13 A2988 RMK AO2 T01440128 $

More Conditions Fewer Conditions

10-Day Weather Forecast

Almanac

Astronomy

Apr. 18, 2015 Rise Set
Actual Time
Civil Twilight
Nautical Twilight
Astronomical Twilight
Moon
Length of Visible Light
Length of Day
Tomorrow will be .
, % of the Moon is Illuminated

Today's Extremes

State Highs State Lows

Community

WunderPhotos

Upload Photos

1,814,457 photos uploaded!

WunderBlogs® & News

Nearby

Air Quality

  Air Quality AQ Index Pollutant
Not available.

Snow Depth

Station Depth Elevation

Earthquake Activity

City Distance Mag. Time & Date
Minimum magnitude displayed is 2.5.

Coastal Water Temperatures

Place Temperature

Stations

Nearby Weather Stations

Station Location Temp. Windchill Dew Point Humidity Wind Precip. Elev Updated Type